Time;durP1;ratioP1;P1;durP2;ratioP2;P2;SDS_P1;SDS_P2;PMS_P1;PMS_P2;Temp;Humidity;BMP_temperature;BMP_pressure;BME280_temperature;BME280_humidity;BME280_pressure;Samples;Min_cycle;Max_cycle;Signal;HPM_P1;HPM_P2
2023/05/16 00:04:09;;;;;;;8.95;8.13;;;14.70;99.90;;;;;;10046699;29;20269;-93
2023/05/16 00:09:12;;;;;;;7.40;6.70;;;14.70;99.90;;;;;;10060183;29;20210;-92
2023/05/16 00:14:15;;;;;;;8.95;8.05;;;14.60;99.90;;;;;;10059320;29;20250;-93
2023/05/16 00:19:19;;;;;;;7.47;6.03;;;15.00;99.90;;;;;;10041473;29;20237;-94
2023/05/16 00:24:21;;;;;;;6.63;5.97;;;15.40;99.90;;;;;;10059359;29;20306;-92
2023/05/16 00:29:24;;;;;;;8.13;7.43;;;16.10;99.90;;;;;;10057998;29;20696;-93
2023/05/16 00:34:26;;;;;;;6.13;5.53;;;16.50;99.90;;;;;;10039648;29;20760;-92
2023/05/16 00:39:29;;;;;;;8.07;7.25;;;16.60;99.90;;;;;;10023968;29;20300;-93
2023/05/16 00:44:32;;;;;;;8.10;7.30;;;16.60;99.90;;;;;;10016911;29;20265;-92
2023/05/16 00:49:34;;;;;;;7.00;5.57;;;16.80;99.90;;;;;;10018331;29;20238;-92
2023/05/16 00:54:37;;;;;;;7.30;6.60;;;17.10;99.90;;;;;;10035354;29;20254;-92
2023/05/16 00:59:41;;;;;;;7.28;6.43;;;17.00;99.90;;;;;;10051752;29;20297;-93
2023/05/16 01:04:44;;;;;;;7.30;5.88;;;17.00;99.90;;;;;;10093860;29;20276;-93
2023/05/16 01:09:47;;;;;;;6.95;6.25;;;17.00;99.90;;;;;;10092840;29;20265;-93
2023/05/16 01:15:13;;;;;;;7.00;6.30;;;17.10;99.90;;;;;;10070452;29;20286;-93
2023/05/16 01:20:48;;;;;;;8.98;7.10;;;17.10;99.90;;;;;;10048308;29;20249;-92
2023/05/16 01:26:21;;;;;;;8.00;7.20;;;16.90;99.90;;;;;;10031642;29;20321;-93
2023/05/16 01:31:23;;;;;;;8.07;7.28;;;16.90;99.90;;;;;;10084225;29;20249;-93
2023/05/16 01:36:32;;;;;;;7.60;6.43;;;16.60;99.90;;;;;;10056032;29;20721;-92
2023/05/16 01:41:53;;;;;;;7.88;7.13;;;16.60;99.90;;;;;;10017712;29;20259;-92
2023/05/16 01:47:01;;;;;;;6.68;5.70;;;16.60;99.90;;;;;;10015607;29;20943;-93
2023/05/16 01:52:15;;;;;;;7.22;6.50;;;17.00;99.90;;;;;;10038348;29;20248;-93
2023/05/16 01:57:19;;;;;;;7.80;7.10;;;16.60;99.90;;;;;;10054577;29;20651;-93
2023/05/16 02:02:22;;;;;;;5.15;4.65;;;16.60;99.90;;;;;;10037564;29;20303;-93
2023/05/16 02:07:24;;;;;;;5.70;5.20;;;16.50;99.90;;;;;;10053330;29;20253;-93
2023/05/16 02:12:27;;;;;;;6.93;6.23;;;16.90;99.90;;;;;;10037289;29;20321;-93
2023/05/16 02:17:30;;;;;;;6.63;6.10;;;17.10;99.90;;;;;;10053744;29;20253;-93
2023/05/16 02:22:32;;;;;;;6.70;6.00;;;16.90;99.90;;;;;;10052100;29;20265;-94
2023/05/16 02:27:35;;;;;;;6.53;5.80;;;17.00;99.90;;;;;;10051376;29;20244;-92
2023/05/16 02:32:43;;;;;;;10.82;5.68;;;17.10;99.90;;;;;;10043113;29;20250;-94
2023/05/16 02:37:46;;;;;;;6.20;5.55;;;16.70;99.90;;;;;;10052820;29;20281;-93
2023/05/16 02:42:49;;;;;;;6.33;5.73;;;16.50;99.90;;;;;;10035314;29;20257;-94
2023/05/16 02:47:51;;;;;;;5.67;4.80;;;16.40;99.90;;;;;;10053479;29;20257;-94
2023/05/16 02:52:54;;;;;;;6.83;6.23;;;16.70;99.90;;;;;;10052418;29;20253;-94
2023/05/16 02:57:57;;;;;;;5.83;5.33;;;16.80;99.90;;;;;;10052069;29;20257;-94
2023/05/16 03:03:00;;;;;;;6.63;6.03;;;16.50;99.90;;;;;;10049673;29;20325;-93
2023/05/16 03:08:03;;;;;;;7.13;6.40;;;16.60;99.90;;;;;;10052581;29;20692;-93
2023/05/16 03:13:08;;;;;;;6.83;5.63;;;16.90;99.90;;;;;;10035085;29;20652;-92
2023/05/16 03:18:11;;;;;;;11.50;6.83;;;16.70;99.90;;;;;;10050711;29;20274;-93
2023/05/16 03:23:14;;;;;;;6.77;5.83;;;17.10;99.90;;;;;;10050821;29;20679;-93
2023/05/16 03:28:17;;;;;;;5.87;5.33;;;16.70;99.90;;;;;;10052042;29;20769;-92
2023/05/16 03:33:19;;;;;;;6.85;6.25;;;16.70;99.90;;;;;;10051892;29;20698;-93
2023/05/16 03:38:22;;;;;;;6.30;5.63;;;16.70;99.90;;;;;;10051620;29;20269;-94
2023/05/16 03:43:25;;;;;;;6.23;5.63;;;16.80;99.90;;;;;;10051369;29;20302;-92
2023/05/16 03:48:27;;;;;;;6.88;6.18;;;16.70;99.90;;;;;;10051747;29;20249;-93
2023/05/16 03:53:29;;;;;;;5.93;5.43;;;16.50;99.90;;;;;;10052438;29;20703;-92
2023/05/16 03:58:32;;;;;;;6.17;5.60;;;16.90;99.90;;;;;;10067820;29;20230;-96
2023/05/16 04:03:34;;;;;;;7.90;5.18;;;17.00;99.90;;;;;;10087854;29;20234;-95
2023/05/16 04:08:39;;;;;;;5.45;4.95;;;16.70;99.90;;;;;;10126322;29;20209;-96
2023/05/16 04:13:41;;;;;;;5.70;5.20;;;16.50;99.90;;;;;;10100166;29;20246;-96
2023/05/16 04:18:45;;;;;;;6.03;5.43;;;16.50;99.90;;;;;;10098323;29;20209;-96
2023/05/16 04:23:47;;;;;;;6.70;5.30;;;16.40;99.90;;;;;;10080302;29;20262;-96
2023/05/16 04:28:50;;;;;;;5.55;5.10;;;16.30;99.90;;;;;;10092755;29;20218;-96
2023/05/16 04:33:53;;;;;;;5.83;5.33;;;16.00;99.90;;;;;;10086845;29;20573;-96
2023/05/16 04:38:56;;;;;;;6.13;5.63;;;16.10;99.90;;;;;;10069901;29;20238;-95
2023/05/16 04:44:02;;;;;;;5.97;5.17;;;16.50;99.90;;;;;;10105319;29;20237;-96
2023/05/16 04:49:05;;;;;;;5.57;5.07;;;16.30;99.90;;;;;;10126232;29;20213;-95
2023/05/16 04:54:08;;;;;;;5.50;5.05;;;16.20;99.90;;;;;;10250503;23;20587;-87
2023/05/16 04:59:10;;;;;;;6.20;5.60;;;16.50;99.90;;;;;;10281294;23;20250;-87
2023/05/16 05:04:13;;;;;;;6.93;5.07;;;17.00;99.90;;;;;;10231216;28;20286;-86
2023/05/16 05:09:16;;;;;;;5.88;5.22;;;17.00;99.90;;;;;;10224858;28;20297;-87
2023/05/16 05:14:18;;;;;;;5.77;5.20;;;16.60;99.90;;;;;;10277259;23;20696;-86
2023/05/16 05:19:21;;;;;;;6.53;5.93;;;16.50;99.90;;;;;;10225203;28;20242;-86
2023/05/16 05:24:23;;;;;;;5.97;5.43;;;16.50;99.90;;;;;;10248799;28;20261;-88
2023/05/16 05:29:26;;;;;;;5.83;5.33;;;17.30;99.90;;;;;;10247743;28;20238;-87
2023/05/16 05:34:29;;;;;;;5.68;5.18;;;17.50;99.90;;;;;;10231986;23;20355;-86
2023/05/16 05:39:32;;;;;;;6.00;5.53;;;17.50;99.90;;;;;;10180718;29;20664;-87
2023/05/16 05:44:36;;;;;;;6.83;5.67;;;17.50;99.90;;;;;;10169273;29;20266;-89
2023/05/16 05:49:39;;;;;;;5.45;4.95;;;17.30;99.90;;;;;;10170888;29;20243;-87
2023/05/16 05:54:41;;;;;;;4.25;3.47;;;17.20;99.90;;;;;;10171759;29;20617;-86
2023/05/16 05:59:44;;;;;;;4.83;3.20;;;17.10;99.90;;;;;;10169464;29;20732;-87
2023/05/16 06:04:46;;;;;;;5.93;4.05;;;16.80;99.90;;;;;;10199606;29;20262;-87
2023/05/16 06:09:49;;;;;;;4.75;4.20;;;17.10;99.90;;;;;;10208475;29;20653;-87
2023/05/16 06:14:51;;;;;;;4.87;4.23;;;16.80;99.90;;;;;;10207649;29;20644;-87
2023/05/16 06:19:54;;;;;;;4.90;4.40;;;17.10;99.90;;;;;;10207404;29;20245;-87
2023/05/16 06:24:56;;;;;;;4.90;4.50;;;17.10;99.90;;;;;;10207035;29;20712;-88
2023/05/16 06:29:59;;;;;;;5.30;4.47;;;17.10;99.90;;;;;;10207548;29;20941;-88
2023/05/16 06:35:02;;;;;;;4.50;4.10;;;17.40;99.90;;;;;;10205903;29;20722;-87
2023/05/16 06:40:06;;;;;;;4.37;3.97;;;17.80;99.90;;;;;;10206490;29;20305;-89
2023/05/16 06:45:09;;;;;;;6.80;5.73;;;17.80;99.90;;;;;;10207100;29;20326;-88
2023/05/16 06:50:13;;;;;;;6.30;4.32;;;18.20;99.90;;;;;;10214962;28;20652;-88
2023/05/16 06:55:16;;;;;;;8.82;7.15;;;18.30;99.90;;;;;;10229134;28;20691;-88
2023/05/16 07:00:19;;;;;;;6.37;5.77;;;18.20;99.90;;;;;;10246490;28;20649;-89
2023/05/16 07:05:21;;;;;;;6.87;6.27;;;18.10;99.90;;;;;;10246615;28;20682;-88
2023/05/16 07:10:26;;;;;;;5.03;4.60;;;18.00;99.90;;;;;;10246644;28;20261;-88
2023/05/16 07:15:28;;;;;;;6.80;6.20;;;18.40;99.90;;;;;;10245732;28;20650;-87
2023/05/16 07:20:33;;;;;;;7.43;4.70;;;18.40;99.10;;;;;;10228930;28;20253;-88
2023/05/16 07:25:36;;;;;;;4.50;4.07;;;18.30;99.90;;;;;;10246043;28;20285;-87
2023/05/16 07:30:39;;;;;;;6.27;5.67;;;18.50;99.90;;;;;;10245286;28;21872;-88
2023/05/16 07:35:42;;;;;;;6.07;5.47;;;18.60;99.90;;;;;;10246047;28;20250;-88
2023/05/16 07:40:45;;;;;;;5.70;3.63;;;18.30;98.30;;;;;;10228577;28;20246;-87
2023/05/16 07:45:47;;;;;;;5.75;5.25;;;18.00;99.90;;;;;;10227643;28;20805;-88
2023/05/16 07:50:50;;;;;;;6.20;5.70;;;18.50;99.90;;;;;;10252238;28;20366;-87
2023/05/16 07:55:55;;;;;;;4.63;4.23;;;18.20;99.90;;;;;;10235427;28;20246;-87
2023/05/16 08:00:57;;;;;;;4.87;4.37;;;17.60;99.90;;;;;;10252554;28;20250;-89
2023/05/16 08:06:00;;;;;;;5.90;4.90;;;18.10;99.90;;;;;;10252582;28;20261;-87
2023/05/16 08:11:04;;;;;;;5.20;4.77;;;17.70;99.90;;;;;;10251412;28;20250;-88
2023/05/16 08:16:07;;;;;;;5.10;4.60;;;18.10;99.90;;;;;;10252123;28;20778;-87
2023/05/16 08:21:09;;;;;;;5.33;4.90;;;18.20;99.90;;;;;;10251646;28;20245;-88
2023/05/16 08:26:12;;;;;;;3.77;3.17;;;18.00;99.90;;;;;;10251043;28;20282;-88
2023/05/16 08:31:15;;;;;;;5.77;4.60;;;18.40;99.90;;;;;;10251187;28;20320;-87
2023/05/16 08:36:18;;;;;;;5.23;4.63;;;;;;;;;;10250635;28;20269;-87
2023/05/16 08:41:21;;;;;;;6.50;5.25;;;17.90;99.90;;;;;;10250354;28;20300;-87
2023/05/16 08:46:27;;;;;;;5.83;4.97;;;18.30;99.90;;;;;;10247787;28;20249;-87
2023/05/16 08:51:35;;;;;;;6.07;5.03;;;18.20;99.90;;;;;;10247987;28;20273;-88
2023/05/16 08:56:38;;;;;;;6.53;5.70;;;18.40;99.90;;;;;;10245765;28;20692;-87
2023/05/16 09:01:40;;;;;;;6.50;5.93;;;18.60;99.90;;;;;;10247084;28;20304;-87
2023/05/16 09:06:43;;;;;;;6.07;5.57;;;18.90;99.90;;;;;;10246974;28;20262;-87
2023/05/16 09:11:46;;;;;;;5.53;5.13;;;19.00;99.90;;;;;;10244719;28;20293;-88
2023/05/16 09:17:08;;;;;;;4.83;4.40;;;19.30;99.90;;;;;;10247726;28;20289;-88
2023/05/16 09:22:14;;;;;;;5.93;5.40;;;19.20;99.90;;;;;;10247053;28;20241;-87
2023/05/16 09:27:17;;;;;;;6.10;5.60;;;19.40;99.90;;;;;;10246933;28;20261;-88
2023/05/16 09:32:20;;;;;;;5.63;5.13;;;19.40;99.90;;;;;;10248690;28;20261;-88
2023/05/16 09:37:22;;;;;;;6.10;5.57;;;19.50;99.90;;;;;;10246969;28;20312;-88
2023/05/16 09:42:25;;;;;;;6.67;6.07;;;19.70;99.90;;;;;;10247769;28;20328;-87
2023/05/16 09:47:27;;;;;;;6.30;5.70;;;19.90;99.90;;;;;;10228858;28;20335;-87
2023/05/16 09:52:30;;;;;;;6.17;5.57;;;19.60;99.90;;;;;;10245985;28;20337;-87
2023/05/16 09:57:37;;;;;;;5.43;4.97;;;19.80;99.90;;;;;;10246658;28;20605;-88
2023/05/16 10:02:40;;;;;;;7.23;6.53;;;19.50;99.90;;;;;;10247803;28;20265;-88
2023/05/16 10:07:44;;;;;;;8.93;5.87;;;19.50;97.30;;;;;;10243957;28;20262;-87
2023/05/16 10:12:47;;;;;;;5.97;5.47;;;19.60;92.50;;;;;;10245536;28;20242;-87
2023/05/16 10:17:52;;;;;;;7.05;5.22;;;19.50;95.20;;;;;;10244963;28;20246;-87
2023/05/16 10:22:56;;;;;;;5.97;5.47;;;19.30;97.60;;;;;;10229799;28;20246;-87
2023/05/16 10:28:01;;;;;;;5.93;5.40;;;19.50;98.70;;;;;;10246437;28;20715;-88
2023/05/16 10:33:04;;;;;;;7.60;5.65;;;19.00;93.70;;;;;;10245528;28;20257;-88
2023/05/16 10:38:10;;;;;;;5.78;4.53;;;19.20;97.50;;;;;;10246766;28;20258;-88
2023/05/16 10:43:23;;;;;;;5.50;5.00;;;19.30;95.90;;;;;;10245310;28;20286;-88
2023/05/16 10:48:37;;;;;;;6.10;5.60;;;19.70;99.90;;;;;;10245363;28;20312;-87
2023/05/16 10:53:42;;;;;;;5.83;5.33;;;19.60;99.90;;;;;;10245304;28;20261;-88
2023/05/16 10:58:47;;;;;;;5.33;4.87;;;19.90;99.00;;;;;;10245288;28;20656;-88
2023/05/16 11:03:58;;;;;;;6.20;4.20;;;20.00;99.90;;;;;;10243975;28;20245;-87
2023/05/16 11:14:07;;;;;;;6.33;5.83;;;20.10;98.10;;;;;;10244623;28;20270;-87
2023/05/16 11:19:10;;;;;;;11.30;6.37;;;19.90;97.70;;;;;;10235309;28;20281;-88
2023/05/16 11:24:29;;;;;;;6.93;6.33;;;20.00;99.30;;;;;;10249820;28;20238;-88
2023/05/16 11:29:36;;;;;;;5.50;5.00;;;20.30;99.30;;;;;;10252585;28;20285;-87
2023/05/16 11:34:39;;;;;;;8.33;7.30;;;20.00;98.60;;;;;;10252011;28;20266;-88
2023/05/16 11:39:42;;;;;;;3.13;2.83;;;19.80;97.40;;;;;;10283916;28;20300;-88
2023/05/16 11:44:45;;;;;;;7.40;5.77;;;19.90;99.90;;;;;;10253612;28;20274;-87
2023/05/16 11:49:48;;;;;;;6.13;5.53;;;20.00;99.90;;;;;;10250910;28;20266;-87
2023/05/16 11:54:51;;;;;;;9.03;6.27;;;19.90;99.80;;;;;;10251989;28;20638;-87
2023/05/16 11:59:53;;;;;;;6.20;5.53;;;19.80;96.80;;;;;;10253016;28;20691;-88
2023/05/16 12:04:56;;;;;;;11.73;8.57;;;19.50;97.20;;;;;;10252933;28;20265;-87
2023/05/16 12:10:07;;;;;;;5.73;5.13;;;19.40;95.80;;;;;;10248957;28;20250;-88
2023/05/16 12:15:11;;;;;;;7.57;6.87;;;19.30;99.30;;;;;;10252661;28;20620;-88
2023/05/16 12:20:17;;;;;;;7.67;6.87;;;19.70;99.10;;;;;;10251935;28;20763;-87
2023/05/16 12:25:31;;;;;;;6.40;5.55;;;19.60;97.70;;;;;;10251952;28;20661;-87
2023/05/16 12:30:34;;;;;;;7.10;6.43;;;19.70;98.20;;;;;;10250055;28;20313;-88
2023/05/16 12:35:39;;;;;;;7.60;7.00;;;19.80;98.80;;;;;;10249660;28;20234;-87
2023/05/16 12:40:42;;;;;;;7.73;7.07;;;19.80;98.90;;;;;;10250294;28;20296;-88
2023/05/16 12:45:53;;;;;;;9.03;8.13;;;19.90;94.40;;;;;;10250964;28;20735;-87
2023/05/16 12:50:56;;;;;;;8.70;7.80;;;19.90;96.50;;;;;;10264634;28;20317;-87
2023/05/16 12:55:58;;;;;;;8.73;7.50;;;19.60;95.70;;;;;;10248182;28;20266;-87
2023/05/16 13:01:01;;;;;;;8.57;7.63;;;19.50;93.80;;;;;;10250622;28;20301;-87
2023/05/16 13:06:04;;;;;;;6.27;5.40;;;19.30;94.70;;;;;;10241437;28;20780;-83
2023/05/16 13:11:07;;;;;;;11.70;8.80;;;19.50;98.10;;;;;;10211508;28;20626;-84
2023/05/16 13:16:10;;;;;;;10.63;7.43;;;19.40;89.80;;;;;;10248387;28;20246;-82
2023/05/16 13:21:13;;;;;;;10.35;6.78;;;;;;;;;;10185462;29;20295;-82
2023/05/16 13:26:16;;;;;;;14.60;8.70;;;20.30;87.10;;;;;;10227921;28;20298;-82
2023/05/16 13:31:18;;;;;;;13.98;8.00;;;20.40;86.30;;;;;;10208466;29;20259;-82
2023/05/16 13:36:21;;;;;;;9.27;8.32;;;20.50;90.40;;;;;;10184792;29;20234;-82
2023/05/16 13:41:25;;;;;;;9.52;8.63;;;;;;;;;;10209082;29;20274;-83
2023/05/16 13:46:28;;;;;;;12.15;9.65;;;20.60;80.90;;;;;;10214887;28;20312;-84
2023/05/16 13:51:30;;;;;;;11.57;9.05;;;20.50;84.20;;;;;;10195092;28;20243;-83
2023/05/16 13:56:33;;;;;;;13.50;9.18;;;20.70;86.10;;;;;;10169697;29;20255;-83
2023/05/16 14:01:35;;;;;;;16.98;13.18;;;20.30;93.50;;;;;;10182167;29;20219;-83
2023/05/16 14:06:38;;;;;;;15.10;13.55;;;20.20;90.70;;;;;;10227513;28;20286;-87
2023/05/16 14:11:42;;;;;;;10.50;8.90;;;19.60;94.00;;;;;;10248702;28;20273;-84
2023/05/16 14:16:45;;;;;;;15.35;13.38;;;19.50;98.20;;;;;;10216531;28;20376;-83
2023/05/16 14:21:48;;;;;;;21.77;14.45;;;19.30;95.30;;;;;;10192892;29;20247;-83
2023/05/16 14:26:53;;;;;;;11.88;10.68;;;19.00;95.40;;;;;;10195013;29;20302;-83
2023/05/16 14:31:58;;;;;;;16.98;12.98;;;19.20;99.90;;;;;;10207535;29;20266;-84
2023/05/16 14:37:01;;;;;;;11.90;10.38;;;19.30;96.10;;;;;;10205826;29;20306;-84
2023/05/16 14:42:04;;;;;;;16.65;11.07;;;18.90;99.90;;;;;;10206874;29;20625;-83
2023/05/16 14:47:10;;;;;;;8.88;7.90;;;18.40;98.20;;;;;;10207167;29;20294;-83
2023/05/16 14:52:13;;;;;;;8.88;7.82;;;18.50;99.90;;;;;;10205429;29;20242;-82
2023/05/16 14:57:15;;;;;;;11.95;8.98;;;18.70;99.90;;;;;;10227642;28;20253;-81
2023/05/16 15:02:18;;;;;;;9.32;8.27;;;18.80;99.90;;;;;;10244374;28;20245;-82
2023/05/16 15:07:21;;;;;;;10.70;7.90;;;18.70;99.90;;;;;;10231704;28;20722;-83
2023/05/16 15:12:23;;;;;;;10.05;8.38;;;19.50;99.90;;;;;;10167648;29;20239;-82
2023/05/16 15:17:26;;;;;;;11.18;8.90;;;20.20;99.80;;;;;;10166898;29;20247;-82
2023/05/16 15:22:28;;;;;;;9.77;8.77;;;20.00;96.10;;;;;;10174695;29;20274;-81
2023/05/16 15:27:32;;;;;;;9.52;8.30;;;19.50;96.10;;;;;;10206633;29;20623;-81
2023/05/16 15:32:34;;;;;;;8.55;7.72;;;19.50;99.90;;;;;;10206313;29;20254;-81
2023/05/16 15:37:37;;;;;;;9.90;8.23;;;19.50;97.80;;;;;;10192696;29;20247;-83
2023/05/16 15:42:42;;;;;;;7.95;7.15;;;19.60;99.80;;;;;;10223436;28;20251;-83
2023/05/16 15:47:45;;;;;;;11.23;8.85;;;18.80;98.40;;;;;;10200878;28;20664;-83
2023/05/16 15:52:48;;;;;;;8.05;7.25;;;18.50;96.20;;;;;;10188863;28;20267;-83
2023/05/16 15:57:50;;;;;;;12.43;9.65;;;17.90;99.90;;;;;;10205264;28;20274;-83
2023/05/16 16:02:53;;;;;;;7.82;7.10;;;18.40;99.90;;;;;;10227726;28;20238;-83
2023/05/16 16:07:56;;;;;;;16.73;10.20;;;18.30;99.90;;;;;;10241586;28;20639;-83
2023/05/16 16:13:03;;;;;;;10.60;9.43;;;18.50;98.10;;;;;;10250763;28;20285;-83
2023/05/16 16:18:05;;;;;;;10.75;9.10;;;18.00;99.90;;;;;;10211380;28;20684;-81
2023/05/16 16:23:08;;;;;;;11.43;10.32;;;18.20;99.90;;;;;;10189144;29;20681;-82
2023/05/16 16:28:10;;;;;;;9.98;8.98;;;18.00;99.90;;;;;;10201752;29;20678;-82
2023/05/16 16:33:13;;;;;;;10.98;9.93;;;18.30;99.90;;;;;;10220471;28;20293;-81
2023/05/16 16:38:16;;;;;;;14.57;11.15;;;18.10;99.90;;;;;;10219450;28;20688;-82
2023/05/16 16:43:19;;;;;;;14.32;10.82;;;17.90;99.90;;;;;;10191711;28;20268;-81
2023/05/16 16:48:22;;;;;;;14.10;11.50;;;17.80;99.90;;;;;;10174411;29;20317;-81
2023/05/16 16:53:25;;;;;;;12.40;10.93;;;17.70;99.90;;;;;;10200002;29;20723;-81
2023/05/16 16:58:27;;;;;;;20.02;15.07;;;17.70;99.90;;;;;;10187490;29;20297;-80
2023/05/16 17:03:30;;;;;;;10.82;9.48;;;17.30;99.90;;;;;;10210215;29;20250;-81
2023/05/16 17:08:33;;;;;;;23.75;17.63;;;16.90;99.90;;;;;;10190535;29;20290;-80
2023/05/16 17:13:36;;;;;;;17.05;13.23;;;17.40;99.90;;;;;;10181523;29;20255;-80
2023/05/16 17:18:39;;;;;;;29.73;20.67;;;17.60;99.90;;;;;;10197178;29;20282;-81
2023/05/16 17:23:42;;;;;;;28.40;20.55;;;16.50;99.90;;;;;;10209025;29;20254;-81
2023/05/16 17:28:45;;;;;;;20.25;15.30;;;15.90;99.80;;;;;;10206216;28;20265;-80
2023/05/16 17:33:52;;;;;;;12.32;10.55;;;15.40;99.90;;;;;;10209429;28;20336;-80
2023/05/16 17:38:55;;;;;;;20.52;15.68;;;15.60;99.90;;;;;;10199474;29;20333;-80
2023/05/16 17:43:57;;;;;;;19.42;14.27;;;15.10;99.90;;;;;;10202342;29;20673;-80
2023/05/16 17:49:00;;;;;;;20.95;14.43;;;14.90;99.90;;;;;;10171227;29;20712;-80
2023/05/16 17:54:03;;;;;;;24.08;16.52;;;14.80;99.90;;;;;;10222558;28;20250;-81
2023/05/16 17:59:05;;;;;;;22.92;17.83;;;14.80;99.90;;;;;;10246198;28;20313;-81
2023/05/16 18:04:08;;;;;;;23.83;18.58;;;14.80;99.90;;;;;;10227594;28;20293;-81
2023/05/16 18:09:13;;;;;;;15.35;12.73;;;14.70;99.90;;;;;;10226120;28;20720;-81
2023/05/16 18:14:16;;;;;;;16.23;12.60;;;14.40;99.90;;;;;;10247060;28;20638;-80
2023/05/16 18:19:19;;;;;;;22.70;14.80;;;14.50;99.90;;;;;;10243839;28;20821;-84
2023/05/16 18:24:22;;;;;;;19.10;13.48;;;14.60;99.90;;;;;;10205842;29;20250;-82
2023/05/16 18:29:25;;;;;;;18.13;13.20;;;14.90;99.90;;;;;;10206440;29;20270;-82
2023/05/16 18:34:28;;;;;;;14.40;11.40;;;14.80;99.90;;;;;;10206487;29;20274;-81
2023/05/16 18:39:30;;;;;;;17.65;13.27;;;14.80;99.90;;;;;;10207235;29;20643;-83
2023/05/16 18:44:33;;;;;;;16.45;12.32;;;14.80;99.90;;;;;;10207605;29;20251;-84
2023/05/16 18:49:37;;;;;;;16.60;12.45;;;15.00;99.90;;;;;;10232613;28;20262;-84
2023/05/16 18:54:40;;;;;;;14.68;11.48;;;14.80;99.90;;;;;;10213560;29;20696;-85
2023/05/16 18:59:42;;;;;;;11.15;9.95;;;14.70;99.90;;;;;;10213398;28;20258;-85
2023/05/16 19:04:45;;;;;;;16.05;11.60;;;15.00;99.90;;;;;;10210907;29;20296;-82
2023/05/16 19:09:48;;;;;;;11.50;10.30;;;15.20;99.90;;;;;;10213413;29;20274;-82
2023/05/16 19:14:50;;;;;;;14.00;11.57;;;15.40;99.90;;;;;;10206667;29;20279;-82
2023/05/16 19:19:53;;;;;;;11.27;9.60;;;15.20;99.90;;;;;;10222227;28;20274;-81
2023/05/16 19:24:56;;;;;;;10.45;9.35;;;15.40;99.90;;;;;;10189487;29;20870;-81
2023/05/16 19:29:58;;;;;;;14.10;11.45;;;15.30;99.90;;;;;;10222077;28;20323;-83
2023/05/16 19:35:01;;;;;;;10.02;9.02;;;15.20;99.90;;;;;;10245528;28;20257;-83
2023/05/16 19:40:04;;;;;;;13.80;11.38;;;15.10;99.90;;;;;;10244710;28;20242;-83
2023/05/16 19:45:07;;;;;;;14.40;12.77;;;15.10;99.90;;;;;;10219939;29;20306;-82
2023/05/16 19:50:10;;;;;;;13.27;11.35;;;14.70;99.90;;;;;;10253556;28;20669;-83
2023/05/16 19:55:12;;;;;;;12.73;10.90;;;14.50;99.90;;;;;;10233251;29;20238;-82
2023/05/16 20:00:15;;;;;;;12.43;10.68;;;14.50;99.90;;;;;;10278512;28;20295;-82
2023/05/16 20:05:21;;;;;;;10.85;9.52;;;14.50;99.90;;;;;;10233676;28;20624;-82
2023/05/16 20:10:24;;;;;;;18.98;13.32;;;14.40;99.90;;;;;;10213185;29;20262;-82
2023/05/16 20:15:26;;;;;;;11.70;10.27;;;14.20;99.90;;;;;;10212364;29;20678;-82
2023/05/16 20:20:29;;;;;;;13.20;11.90;;;14.10;99.90;;;;;;10212283;29;20250;-82
2023/05/16 20:25:32;;;;;;;16.45;11.88;;;14.20;99.90;;;;;;10218159;29;20242;-83
2023/05/16 20:30:34;;;;;;;15.63;11.93;;;14.30;99.90;;;;;;10224103;28;20257;-83
2023/05/16 20:35:37;;;;;;;12.07;10.88;;;14.50;99.90;;;;;;10218007;28;20269;-83
2023/05/16 20:40:40;;;;;;;11.63;10.18;;;14.50;99.90;;;;;;10248663;28;20229;-83
2023/05/16 20:45:42;;;;;;;13.63;11.52;;;14.70;99.90;;;;;;10247101;28;20704;-83
2023/05/16 20:50:45;;;;;;;14.32;12.18;;;14.60;99.90;;;;;;10237308;28;20271;-82
2023/05/16 20:55:47;;;;;;;12.23;10.38;;;14.60;99.90;;;;;;10231056;28;20237;-83
2023/05/16 21:00:50;;;;;;;14.77;12.63;;;14.60;99.90;;;;;;10220518;28;20238;-82
2023/05/16 21:05:52;;;;;;;12.25;10.95;;;14.50;99.90;;;;;;10263672;28;20241;-82
2023/05/16 21:10:55;;;;;;;14.18;12.68;;;14.20;99.90;;;;;;10229942;23;20263;-83
2023/05/16 21:15:57;;;;;;;15.65;13.27;;;14.30;99.90;;;;;;10193331;29;20693;-84
2023/05/16 21:21:00;;;;;;;14.93;12.45;;;14.40;99.90;;;;;;10191433;29;20247;-84
2023/05/16 21:26:03;;;;;;;16.80;12.32;;;14.40;99.90;;;;;;10193567;29;20247;-84
2023/05/16 21:31:06;;;;;;;15.98;12.70;;;14.20;99.90;;;;;;10189434;29;20282;-84
2023/05/16 21:36:09;;;;;;;21.67;14.02;;;14.00;99.90;;;;;;10189554;29;20248;-84
2023/05/16 21:41:12;;;;;;;20.02;14.77;;;14.00;99.90;;;;;;10190680;29;20806;-84
2023/05/16 21:46:14;;;;;;;18.67;13.73;;;13.80;99.90;;;;;;10192728;29;20644;-84
2023/05/16 21:51:18;;;;;;;15.60;11.98;;;13.70;99.90;;;;;;10197323;29;20307;-83
2023/05/16 21:56:21;;;;;;;16.40;12.65;;;13.80;99.90;;;;;;10190284;29;20236;-84
2023/05/16 22:01:25;;;;;;;17.08;12.23;;;13.70;99.90;;;;;;10191029;29;20247;-82
2023/05/16 22:06:28;;;;;;;18.40;13.25;;;13.70;99.90;;;;;;10191206;29;20356;-83
2023/05/16 22:11:32;;;;;;;19.83;13.70;;;13.40;99.90;;;;;;10189487;29;20258;-82
2023/05/16 22:16:34;;;;;;;18.77;13.65;;;12.90;99.90;;;;;;10204353;29;20633;-82
2023/05/16 22:21:37;;;;;;;18.88;13.77;;;12.40;99.90;;;;;;10207897;29;20251;-83
2023/05/16 22:26:39;;;;;;;16.92;13.68;;;12.30;99.90;;;;;;10198932;29;20371;-83
2023/05/16 22:31:42;;;;;;;15.85;13.43;;;12.30;99.90;;;;;;10200940;29;20231;-83
2023/05/16 22:36:45;;;;;;;17.48;13.75;;;12.10;99.90;;;;;;10202768;29;20235;-85
2023/05/16 22:41:48;;;;;;;15.27;11.48;;;12.10;99.90;;;;;;10197987;29;20299;-84
2023/05/16 22:46:50;;;;;;;16.23;12.05;;;12.30;99.90;;;;;;10184117;29;20318;-84
2023/05/16 22:51:53;;;;;;;14.88;12.68;;;12.50;99.90;;;;;;10181859;29;20306;-84
2023/05/16 22:56:55;;;;;;;12.02;10.82;;;12.70;99.90;;;;;;10182319;29;20779;-85
2023/05/16 23:01:58;;;;;;;13.52;12.15;;;12.90;99.90;;;;;;10176882;29;20287;-84
2023/05/16 23:07:00;;;;;;;16.05;12.68;;;13.00;99.90;;;;;;10167971;29;20239;-85
2023/05/16 23:12:03;;;;;;;13.60;11.77;;;13.10;99.90;;;;;;10150593;29;20263;-85
2023/05/16 23:17:06;;;;;;;16.77;12.50;;;13.20;99.90;;;;;;10199650;29;20246;-85
2023/05/16 23:22:08;;;;;;;17.33;13.38;;;13.30;99.90;;;;;;10211325;29;20300;-85
2023/05/16 23:27:11;;;;;;;13.77;11.48;;;13.30;99.90;;;;;;10214052;29;20293;-84
2023/05/16 23:32:13;;;;;;;17.45;11.50;;;13.20;99.90;;;;;;10214138;29;20262;-85
2023/05/16 23:37:16;;;;;;;16.45;10.80;;;13.20;99.90;;;;;;10213837;29;20238;-85
2023/05/16 23:42:19;;;;;;;16.20;11.15;;;13.20;99.90;;;;;;10196796;29;20309;-85
2023/05/16 23:47:21;;;;;;;13.10;9.82;;;13.40;99.90;;;;;;10213172;29;20290;-84
2023/05/16 23:52:24;;;;;;;12.60;10.05;;;13.70;99.90;;;;;;10213357;29;20247;-85
2023/05/16 23:57:27;;;;;;;13.65;10.70;;;13.70;99.90;;;;;;10211779;29;20270;-84
